createdAt,value
2022-09-22T00:01:31.553Z,5.50
2022-09-22T00:04:04.279Z,7.75
2022-09-22T00:06:35.314Z,12.07
2022-09-22T00:09:03.955Z,5.68
2022-09-22T00:11:36.088Z,9.10
2022-09-22T00:14:05.164Z,8.68
2022-09-22T00:16:39.259Z,5.10
2022-09-22T00:19:21.364Z,6.18
2022-09-22T00:21:49.742Z,7.97
2022-09-22T00:24:19.235Z,6.72
2022-09-22T00:26:46.715Z,9.63
2022-09-22T00:29:15.737Z,5.55
2022-09-22T00:31:44.331Z,7.45
2022-09-22T00:34:17.001Z,11.05
2022-09-22T00:36:44.819Z,14.23
2022-09-22T00:39:13.464Z,5.65
2022-09-22T00:41:44.879Z,10.68
2022-09-22T00:44:21.183Z,14.07
2022-09-22T00:46:54.411Z,9.48
2022-09-22T00:49:45.997Z,7.22
2022-09-22T00:52:18.420Z,14.50
2022-09-22T00:54:46.843Z,9.63
2022-09-22T00:57:22.598Z,12.75
2022-09-22T00:59:52.443Z,4.85
2022-09-22T01:02:21.060Z,5.32
2022-09-22T01:04:51.373Z,7.05
2022-09-22T01:07:21.964Z,7.22
2022-09-22T01:09:49.575Z,12.15
2022-09-22T01:12:16.904Z,8.10
2022-09-22T01:14:59.552Z,5.03
2022-09-22T01:17:40.862Z,4.68
2022-09-22T01:20:45.109Z,5.68
2022-09-22T01:23:53.897Z,7.38
2022-09-22T01:26:52.366Z,8.80
2022-09-22T01:29:19.712Z,3.80
2022-09-22T01:32:08.375Z,7.97
2022-09-22T01:34:50.224Z,6.60
2022-09-22T01:40:12.250Z,5.82
2022-09-22T01:42:46.882Z,8.63
2022-09-22T01:45:19.328Z,8.20
2022-09-22T01:47:55.090Z,8.18
2022-09-22T01:50:30.022Z,5.18
2022-09-22T01:53:01.843Z,6.68
2022-09-22T01:58:12.758Z,11.60
2022-09-22T02:00:46.360Z,9.48
2022-09-22T02:03:50.321Z,9.75
2022-09-22T02:06:26.999Z,5.28
2022-09-22T02:08:59.563Z,5.43
2022-09-22T02:11:26.914Z,7.63
2022-09-22T02:13:54.920Z,12.88
2022-09-22T02:16:24.809Z,5.70
2022-09-22T02:19:06.277Z,9.20
2022-09-22T02:21:41.867Z,10.43
2022-09-22T02:24:34.112Z,7.75
2022-09-22T02:27:09.243Z,9.65
2022-09-22T02:29:40.927Z,8.35
2022-09-22T02:32:13.538Z,7.40
2022-09-22T02:34:41.650Z,8.45
2022-09-22T02:37:22.771Z,8.63
2022-09-22T02:40:20.772Z,10.13
2022-09-22T02:42:55.275Z,5.43
2022-09-22T02:45:28.003Z,5.72
2022-09-22T02:48:04.564Z,5.35
2022-09-22T02:50:35.011Z,7.38
2022-09-22T02:53:11.877Z,6.60
2022-09-22T02:55:40.190Z,6.35
2022-09-22T02:58:07.638Z,5.38
2022-09-22T03:00:35.441Z,10.07
2022-09-22T03:03:03.485Z,5.20
2022-09-22T03:05:30.804Z,8.93
2022-09-22T03:07:59.005Z,6.30
2022-09-22T03:10:26.280Z,6.40
2022-09-22T03:13:14.930Z,3.97
2022-09-22T03:15:40.962Z,4.00
2022-09-22T03:18:09.255Z,5.60
2022-09-22T03:20:36.499Z,5.85
2022-09-22T03:23:04.135Z,5.85
2022-09-22T03:25:31.616Z,5.20
2022-09-22T03:27:58.866Z,8.40
2022-09-22T03:30:26.196Z,7.40
2022-09-22T03:32:53.483Z,7.03
2022-09-22T03:35:21.187Z,6.22
2022-09-22T03:37:48.546Z,7.50
2022-09-22T03:40:16.672Z,18.38
2022-09-22T03:42:44.693Z,13.23
2022-09-22T03:45:12.694Z,7.15
2022-09-22T03:47:39.962Z,7.40
2022-09-22T03:50:08.145Z,6.30
2022-09-22T03:52:36.147Z,8.45
2022-09-22T03:55:03.734Z,7.05
2022-09-22T03:57:31.436Z,6.97
2022-09-22T03:59:58.908Z,6.38
2022-09-22T04:02:26.223Z,7.38
2022-09-22T04:04:54.429Z,5.68
2022-09-22T04:07:21.886Z,7.43
2022-09-22T04:09:49.892Z,8.00
2022-09-22T04:12:17.188Z,10.35
2022-09-22T04:14:44.428Z,7.13
2022-09-22T04:17:12.463Z,11.55
2022-09-22T04:19:39.780Z,6.53
2022-09-22T04:22:07.402Z,7.85
2022-09-22T04:24:34.929Z,8.20
2022-09-22T04:27:19.091Z,5.07
2022-09-22T04:29:47.458Z,5.93
2022-09-22T04:32:14.988Z,7.30
2022-09-22T04:34:43.085Z,9.10
2022-09-22T04:37:11.378Z,9.57
2022-09-22T04:39:38.873Z,11.63
2022-09-22T04:42:08.895Z,11.55
2022-09-22T04:44:36.578Z,5.65
2022-09-22T04:47:04.699Z,7.35
2022-09-22T04:49:32.020Z,8.50
2022-09-22T04:51:59.341Z,7.88
2022-09-22T04:54:26.740Z,6.45
2022-09-22T04:56:54.465Z,12.68
2022-09-22T04:59:22.183Z,9.40
2022-09-22T05:01:49.500Z,6.47
2022-09-22T05:04:17.983Z,8.93
2022-09-22T05:06:45.351Z,18.20
2022-09-22T05:09:13.318Z,13.93
2022-09-22T05:11:40.999Z,15.07
2022-09-22T05:14:08.419Z,8.98
2022-09-22T05:16:35.992Z,6.82
2022-09-22T05:19:03.367Z,5.97
2022-09-22T05:21:31.304Z,11.80
2022-09-22T05:23:58.950Z,9.95
2022-09-22T05:26:26.519Z,11.00
2022-09-22T05:28:53.989Z,16.38
2022-09-22T05:31:21.726Z,10.05
2022-09-22T05:33:49.906Z,16.00
2022-09-22T05:36:17.186Z,10.98
2022-09-22T05:38:44.426Z,12.68
2022-09-22T05:41:11.644Z,14.43
2022-09-22T05:43:39.175Z,18.27
2022-09-22T05:46:06.891Z,24.13
2022-09-22T05:48:34.908Z,58.65
2022-09-22T05:51:02.098Z,43.53
2022-09-22T05:53:29.787Z,22.58
2022-09-22T05:55:57.548Z,26.42
2022-09-22T05:58:24.795Z,12.65
2022-09-22T06:00:52.756Z,20.23
2022-09-22T06:03:19.985Z,21.75
2022-09-22T06:05:47.360Z,15.35
2022-09-22T06:08:15.985Z,7.15
2022-09-22T06:10:45.233Z,11.55
2022-09-22T06:13:12.556Z,6.97
2022-09-22T06:15:40.000Z,9.32
2022-09-22T06:18:14.959Z,9.90
2022-09-22T06:20:43.176Z,6.53
2022-09-22T06:23:15.397Z,13.43
2022-09-22T06:25:43.463Z,14.88
2022-09-22T06:28:14.597Z,22.45
2022-09-22T06:30:42.667Z,10.02
2022-09-22T06:33:11.087Z,6.85
2022-09-22T06:35:42.903Z,13.45
2022-09-22T06:38:15.068Z,18.58
2022-09-22T06:40:43.644Z,11.38
2022-09-22T06:43:22.666Z,11.60
2022-09-22T06:45:51.734Z,12.63
2022-09-22T06:48:22.269Z,14.30
2022-09-22T06:50:51.747Z,10.80
2022-09-22T06:53:21.804Z,14.10
2022-09-22T06:55:53.715Z,18.42
2022-09-22T06:58:22.440Z,9.30
2022-09-22T07:00:50.627Z,14.60
2022-09-22T07:03:24.324Z,11.25
2022-09-22T07:05:56.349Z,5.88
2022-09-22T07:08:25.880Z,12.98
2022-09-22T07:10:54.812Z,9.70
2022-09-22T07:13:22.893Z,7.85
2022-09-22T07:15:50.397Z,8.77
2022-09-22T07:18:18.333Z,6.85
2022-09-22T07:20:46.157Z,8.40
2022-09-22T07:23:18.293Z,8.98
2022-09-22T07:25:56.388Z,8.68
2022-09-22T07:28:25.848Z,8.95
2022-09-22T07:30:53.152Z,8.07
2022-09-22T07:33:20.897Z,7.40
2022-09-22T07:35:48.336Z,8.20
2022-09-22T07:38:16.590Z,12.95
2022-09-22T07:40:53.272Z,8.00
2022-09-22T07:43:20.719Z,8.15
2022-09-22T07:45:57.955Z,6.85
2022-09-22T07:48:45.385Z,14.32
2022-09-22T07:51:16.783Z,15.80
2022-09-22T07:53:45.775Z,13.55
2022-09-22T07:56:19.029Z,16.85
2022-09-22T07:58:51.387Z,9.32
2022-09-22T08:01:20.418Z,19.55
2022-09-22T08:03:47.967Z,11.05
2022-09-22T08:06:18.427Z,13.75
2022-09-22T08:08:53.621Z,15.00
2022-09-22T08:11:25.102Z,14.38
2022-09-22T08:14:04.775Z,18.05
2022-09-22T08:16:34.676Z,12.70
2022-09-22T08:19:10.408Z,12.82
2022-09-22T08:21:49.170Z,10.63
2022-09-22T08:24:22.920Z,6.70
2022-09-22T08:26:52.593Z,8.32
2022-09-22T08:29:21.044Z,10.70
2022-09-22T08:31:49.442Z,9.48
2022-09-22T08:34:18.045Z,11.73
2022-09-22T08:36:48.178Z,6.38
2022-09-22T08:39:17.051Z,7.78
2022-09-22T08:42:18.385Z,10.13
2022-09-22T08:45:17.225Z,9.80
2022-09-22T08:48:10.807Z,5.68
2022-09-22T08:51:07.971Z,6.10
2022-09-22T08:53:44.164Z,9.80
2022-09-22T08:56:26.065Z,10.93
2022-09-22T08:59:18.507Z,7.05
2022-09-22T09:02:15.816Z,8.88
2022-09-22T09:04:59.631Z,10.65
2022-09-22T09:07:56.869Z,5.70
2022-09-22T09:10:56.391Z,9.40
2022-09-22T09:13:29.776Z,6.38
2022-09-22T09:16:04.698Z,7.18
2022-09-22T09:18:36.924Z,4.65
2022-09-22T09:21:10.055Z,4.22
2022-09-22T09:26:39.945Z,1.23
2022-09-22T09:29:15.993Z,1.73
2022-09-22T09:31:48.965Z,3.40
2022-09-22T09:34:18.998Z,4.68
2022-09-22T09:37:14.816Z,5.97
2022-09-22T09:39:44.628Z,3.05
2022-09-22T09:42:23.290Z,7.75
2022-09-22T09:44:55.185Z,1.98
2022-09-22T09:47:44.011Z,3.17
2022-09-22T09:50:12.083Z,2.33
2022-09-22T09:52:39.902Z,1.95
2022-09-22T09:55:27.391Z,1.90
2022-09-22T09:58:05.186Z,2.05
2022-09-22T10:00:35.113Z,4.55
2022-09-22T10:03:02.927Z,8.38
2022-09-22T10:05:32.741Z,6.10
2022-09-22T10:08:20.323Z,1.77
2022-09-22T10:10:48.827Z,3.35
2022-09-22T10:13:23.547Z,2.95
2022-09-22T10:16:01.567Z,12.82
2022-09-22T10:18:35.288Z,3.60
2022-09-22T10:21:23.990Z,4.68
2022-09-22T10:23:55.935Z,8.40
2022-09-22T10:26:28.671Z,1.40
2022-09-22T10:29:18.339Z,3.05
2022-09-22T10:32:16.264Z,5.32
2022-09-22T10:37:24.763Z,3.15
2022-09-22T10:39:54.108Z,6.43
2022-09-22T10:42:43.967Z,2.58
2022-09-22T10:45:16.857Z,1.17
2022-09-22T10:48:03.595Z,3.55
2022-09-22T10:50:45.840Z,4.80
2022-09-22T10:53:26.387Z,2.33
2022-09-22T10:56:06.715Z,3.17
2022-09-22T10:58:53.242Z,4.55
2022-09-22T11:01:32.659Z,3.75
2022-09-22T11:04:34.046Z,6.93
2022-09-22T11:08:05.433Z,3.88
2022-09-22T11:10:56.723Z,5.87
2022-09-22T11:13:46.442Z,1.85
2022-09-22T11:16:40.377Z,2.33
2022-09-22T11:19:26.631Z,2.17
2022-09-22T11:22:17.332Z,3.08
2022-09-22T11:25:15.268Z,6.18
2022-09-22T11:27:51.386Z,1.08
2022-09-22T11:30:22.290Z,3.22
2022-09-22T11:33:03.075Z,3.45
2022-09-22T11:35:52.679Z,1.40
2022-09-22T11:38:49.006Z,5.70
2022-09-22T11:41:28.858Z,2.83
2022-09-22T11:43:59.686Z,3.03
2022-09-22T11:47:12.691Z,6.00
2022-09-22T11:50:08.976Z,3.38
2022-09-22T11:52:49.758Z,7.28
2022-09-22T11:55:23.364Z,6.27
2022-09-22T11:57:57.616Z,10.63
2022-09-22T12:00:25.637Z,1.83
2022-09-22T12:03:06.438Z,3.58
2022-09-22T12:05:52.731Z,2.55
2022-09-22T12:08:23.553Z,4.05
2022-09-22T12:10:53.290Z,1.95
2022-09-22T12:13:26.604Z,5.93
2022-09-22T12:16:23.472Z,2.45
2022-09-22T12:19:22.290Z,2.85
2022-09-22T12:22:28.773Z,7.90
2022-09-22T12:24:56.577Z,7.57
2022-09-22T12:27:27.377Z,3.58
2022-09-22T12:29:55.204Z,3.38
2022-09-22T12:32:26.216Z,3.40
2022-09-22T12:34:58.232Z,1.98
2022-09-22T12:37:30.933Z,2.10
2022-09-22T12:40:24.000Z,7.40
2022-09-22T12:42:54.272Z,4.85
2022-09-22T12:45:40.795Z,9.55
2022-09-22T12:48:14.481Z,2.38
2022-09-22T12:50:45.962Z,2.13
2022-09-22T12:53:22.384Z,5.50
2022-09-22T12:55:54.583Z,1.80
2022-09-22T12:58:22.337Z,2.40
2022-09-22T13:00:52.139Z,8.85
2022-09-22T13:03:25.699Z,3.00
2022-09-22T13:06:05.012Z,1.52
2022-09-22T13:08:32.552Z,2.58
2022-09-22T13:11:01.363Z,1.67
2022-09-22T13:13:31.932Z,4.60
2022-09-22T13:16:01.897Z,6.17
2022-09-22T13:18:43.747Z,4.07
2022-09-22T13:21:13.726Z,7.32
2022-09-22T13:24:00.156Z,4.30
2022-09-22T13:26:35.459Z,2.53
2022-09-22T13:29:03.645Z,2.90
2022-09-22T13:31:51.011Z,3.60
2022-09-22T13:34:20.014Z,1.90
2022-09-22T13:36:48.267Z,2.80
2022-09-22T13:39:21.111Z,1.40
2022-09-22T13:41:52.723Z,2.47
2022-09-22T13:44:31.616Z,2.33
2022-09-22T13:47:03.023Z,4.38
2022-09-22T13:52:13.875Z,3.00
2022-09-22T13:54:42.304Z,2.45
2022-09-22T13:57:22.333Z,6.45
2022-09-22T13:59:51.491Z,5.22
2022-09-22T14:02:28.189Z,9.82
2022-09-22T14:05:03.269Z,6.72
2022-09-22T14:07:38.261Z,6.18
2022-09-22T14:10:19.056Z,10.43
2022-09-22T14:12:46.844Z,13.02
2022-09-22T14:15:33.383Z,3.60
2022-09-22T14:18:02.176Z,6.22
2022-09-22T14:20:29.551Z,4.50
2022-09-22T14:22:57.113Z,5.03
2022-09-22T14:25:25.230Z,3.78
2022-09-22T14:27:58.860Z,2.50
2022-09-22T14:30:31.291Z,5.75
2022-09-22T14:33:04.064Z,5.57
2022-09-22T14:35:37.363Z,7.45
2022-09-22T14:38:16.724Z,1.40
2022-09-22T14:40:56.082Z,4.15
2022-09-22T14:46:28.800Z,4.97
2022-09-22T14:48:57.383Z,2.20
2022-09-22T14:51:26.985Z,3.83
2022-09-22T14:53:57.819Z,5.45
2022-09-22T14:56:28.410Z,3.03
2022-09-22T14:59:00.978Z,3.33
2022-09-22T15:01:50.241Z,7.57
2022-09-22T15:04:23.124Z,2.78
2022-09-22T15:06:52.432Z,6.72
2022-09-22T15:09:39.037Z,4.40
2022-09-22T15:12:08.975Z,3.15
2022-09-22T15:14:44.754Z,2.17
2022-09-22T15:17:52.648Z,2.90
2022-09-22T15:20:26.856Z,1.35
2022-09-22T15:22:55.187Z,11.98
2022-09-22T15:25:24.230Z,5.20
2022-09-22T15:27:53.555Z,3.60
2022-09-22T15:30:22.012Z,6.78
2022-09-22T15:32:49.673Z,5.22
2022-09-22T15:35:18.060Z,2.55
2022-09-22T15:37:47.980Z,3.35
2022-09-22T15:40:21.258Z,4.03
2022-09-22T15:43:11.216Z,2.83
2022-09-22T15:45:38.579Z,3.45
2022-09-22T15:48:08.794Z,2.72
2022-09-22T15:50:37.134Z,4.50
2022-09-22T15:53:04.920Z,6.40
2022-09-22T15:55:33.248Z,7.05
2022-09-22T15:58:07.357Z,14.45
2022-09-22T16:00:36.665Z,14.77
2022-09-22T16:03:14.022Z,12.02
2022-09-22T16:05:42.768Z,3.78
2022-09-22T16:08:15.576Z,4.25
2022-09-22T16:10:44.838Z,9.50
2022-09-22T16:13:12.935Z,5.88
2022-09-22T16:15:41.176Z,1.13
2022-09-22T16:18:09.112Z,9.30
2022-09-22T16:20:37.336Z,2.83
2022-09-22T16:23:06.648Z,7.55
2022-09-22T16:25:34.613Z,3.53
2022-09-22T16:28:02.288Z,7.00
2022-09-22T16:30:30.657Z,3.55
2022-09-22T16:33:14.527Z,11.85
2022-09-22T16:35:42.204Z,4.78
2022-09-22T16:38:11.632Z,4.20
2022-09-22T16:40:39.047Z,3.00
2022-09-22T16:43:08.748Z,21.15
2022-09-22T16:45:55.052Z,5.32
2022-09-22T16:48:22.626Z,10.02
2022-09-22T16:50:53.891Z,8.00
2022-09-22T16:53:22.970Z,6.78
2022-09-22T16:55:50.644Z,12.88
2022-09-22T16:58:18.007Z,11.73
2022-09-22T17:00:45.850Z,2.88
2022-09-22T17:03:13.277Z,7.65
2022-09-22T17:05:41.110Z,3.38
2022-09-22T17:08:08.498Z,2.05
2022-09-22T17:10:35.927Z,8.20
2022-09-22T17:13:07.857Z,4.40
2022-09-22T17:15:36.017Z,7.80
2022-09-22T17:18:04.194Z,5.63
2022-09-22T17:20:31.500Z,2.88
2022-09-22T17:22:58.824Z,7.07
2022-09-22T17:25:29.141Z,4.82
2022-09-22T17:27:57.688Z,6.65
2022-09-22T17:30:25.332Z,8.18
2022-09-22T17:32:53.527Z,3.10
2022-09-22T17:35:21.021Z,10.40
2022-09-22T17:37:49.406Z,5.30
2022-09-22T17:40:17.700Z,7.97
2022-09-22T17:42:45.010Z,6.70
2022-09-22T17:45:12.700Z,8.05
2022-09-22T17:47:58.586Z,4.95
2022-09-22T17:50:44.314Z,9.43
2022-09-22T17:53:30.639Z,4.57
2022-09-22T17:56:02.083Z,5.93
2022-09-22T17:58:29.275Z,13.55
2022-09-22T18:00:57.286Z,13.27
2022-09-22T18:03:25.155Z,2.95
2022-09-22T18:05:53.573Z,8.63
2022-09-22T18:08:21.800Z,9.63
2022-09-22T18:10:49.052Z,8.57
2022-09-22T18:13:16.727Z,10.43
2022-09-22T18:15:44.027Z,6.75
2022-09-22T18:18:11.315Z,4.28
2022-09-22T18:20:39.672Z,15.18
2022-09-22T18:23:07.121Z,14.60
2022-09-22T18:25:35.156Z,7.22
2022-09-22T18:28:03.851Z,14.80
2022-09-22T18:30:32.040Z,8.25
2022-09-22T18:32:59.232Z,11.02
2022-09-22T18:35:28.828Z,17.27
2022-09-22T18:37:56.459Z,11.15
2022-09-22T18:40:23.862Z,18.80
2022-09-22T18:42:51.569Z,12.95
2022-09-22T18:45:19.364Z,11.27
2022-09-22T18:47:46.875Z,8.15
2022-09-22T18:50:14.263Z,6.30
2022-09-22T18:52:43.159Z,10.00
2022-09-22T18:55:17.176Z,10.50
2022-09-22T18:57:47.440Z,6.68
2022-09-22T19:00:16.069Z,8.82
2022-09-22T19:02:43.980Z,10.27
2022-09-22T19:05:11.294Z,19.08
2022-09-22T19:07:42.881Z,11.32
2022-09-22T19:10:12.701Z,16.15
2022-09-22T19:12:40.132Z,9.15
2022-09-22T19:15:13.269Z,12.20
2022-09-22T19:17:43.849Z,4.35
2022-09-22T19:20:31.085Z,10.05
2022-09-22T19:22:59.559Z,7.65
2022-09-22T19:25:27.609Z,12.93
2022-09-22T19:27:55.620Z,9.70
2022-09-22T19:30:25.671Z,8.90
2022-09-22T19:32:56.137Z,6.90
2022-09-22T19:35:24.290Z,9.80
2022-09-22T19:37:52.185Z,11.48
2022-09-22T19:40:24.492Z,7.80
2022-09-22T19:42:53.785Z,21.13
2022-09-22T19:45:23.784Z,11.98
2022-09-22T19:47:58.443Z,13.65
2022-09-22T19:50:26.874Z,13.00
2022-09-22T19:52:54.256Z,16.42
2022-09-22T19:55:21.987Z,14.68
2022-09-22T19:57:49.867Z,14.63
2022-09-22T20:00:17.655Z,11.35
2022-09-22T20:02:46.096Z,9.07
2022-09-22T20:05:20.605Z,16.60
2022-09-22T20:07:48.877Z,9.43
2022-09-22T20:10:18.910Z,12.07
2022-09-22T20:12:46.887Z,20.85
2022-09-22T20:15:15.844Z,10.10
2022-09-22T20:17:47.570Z,11.88
2022-09-22T20:22:46.617Z,10.95
2022-09-22T20:25:27.124Z,21.75
2022-09-22T20:27:56.127Z,15.23
2022-09-22T20:30:23.462Z,18.42
2022-09-22T20:32:51.922Z,15.90
2022-09-22T20:35:21.828Z,12.52
2022-09-22T20:37:51.482Z,12.75
2022-09-22T20:40:21.431Z,14.18
2022-09-22T20:42:50.835Z,15.30
2022-09-22T20:45:20.768Z,12.23
2022-09-22T20:47:49.763Z,14.97
2022-09-22T20:50:17.375Z,16.65
2022-09-22T20:52:44.718Z,10.73
2022-09-22T20:55:11.927Z,14.02
2022-09-22T20:57:40.164Z,12.07
2022-09-22T21:00:08.431Z,11.35
2022-09-22T21:02:36.306Z,11.32
2022-09-22T21:05:04.037Z,13.82
2022-09-22T21:07:32.520Z,8.02
2022-09-22T21:10:18.508Z,11.82
2022-09-22T21:12:46.844Z,17.05
2022-09-22T21:15:14.433Z,14.30
2022-09-22T21:17:44.162Z,13.80
2022-09-22T21:20:11.680Z,18.42
2022-09-22T21:22:39.181Z,12.02
2022-09-22T21:25:06.724Z,8.48
2022-09-22T21:27:34.017Z,10.07
2022-09-22T21:30:02.504Z,12.32
2022-09-22T21:32:31.215Z,15.73
2022-09-22T21:34:58.506Z,14.13
2022-09-22T21:37:26.716Z,17.10
2022-09-22T21:39:54.003Z,16.10
2022-09-22T21:42:21.635Z,25.30
2022-09-22T21:44:49.352Z,14.48
2022-09-22T21:47:16.660Z,13.23
2022-09-22T21:49:43.975Z,11.93
2022-09-22T21:52:11.726Z,11.95
2022-09-22T21:54:39.497Z,19.27
2022-09-22T21:57:06.739Z,19.35
2022-09-22T21:59:34.015Z,17.42
2022-09-22T22:02:01.287Z,12.38
2022-09-22T22:04:28.782Z,17.10
2022-09-22T22:06:56.534Z,13.95
2022-09-22T22:09:25.652Z,15.13
2022-09-22T22:11:56.436Z,15.32
2022-09-22T22:14:26.260Z,14.85
2022-09-22T22:16:55.941Z,18.23
2022-09-22T22:19:25.906Z,15.02
2022-09-22T22:21:54.218Z,16.95
2022-09-22T22:24:28.803Z,23.00
2022-09-22T22:27:01.459Z,16.50
2022-09-22T22:29:34.650Z,15.85
2022-09-22T22:32:03.863Z,16.08
2022-09-22T22:34:31.661Z,21.98
2022-09-22T22:36:59.545Z,17.85
2022-09-22T22:39:26.788Z,22.20
2022-09-22T22:41:55.150Z,10.60
2022-09-22T22:44:22.952Z,14.60
2022-09-22T22:46:50.491Z,15.27
2022-09-22T22:49:17.915Z,15.02
2022-09-22T22:51:45.551Z,15.07
2022-09-22T22:54:14.550Z,23.08
2022-09-22T22:56:43.223Z,19.88
2022-09-22T22:59:13.219Z,21.20
2022-09-22T23:01:41.647Z,23.58
2022-09-22T23:04:11.483Z,20.05
2022-09-22T23:06:44.673Z,25.58
2022-09-22T23:09:15.622Z,19.80
2022-09-22T23:11:43.763Z,17.80
2022-09-22T23:14:12.722Z,14.68
2022-09-22T23:16:43.235Z,22.00
2022-09-22T23:19:16.839Z,10.27
2022-09-22T23:21:45.570Z,18.98
2022-09-22T23:24:16.590Z,11.73
2022-09-22T23:26:44.797Z,16.88
2022-09-22T23:29:12.557Z,14.48
2022-09-22T23:31:40.245Z,14.55
2022-09-22T23:34:07.451Z,21.67
2022-09-22T23:36:35.000Z,21.42
2022-09-22T23:39:03.949Z,16.95
2022-09-22T23:41:34.245Z,19.70
2022-09-22T23:44:03.055Z,14.93
2022-09-22T23:46:31.203Z,22.95
2022-09-22T23:48:59.949Z,14.70
2022-09-22T23:51:28.538Z,23.13
2022-09-22T23:53:56.581Z,23.80
2022-09-22T23:56:24.300Z,22.92
2022-09-22T23:58:52.926Z,21.67
